sensor_id;sensor_type;location;lat;lon;timestamp;P1;durP1;ratioP1;P2;durP2;ratioP2
8098;SDS011;4092;47.876;9.372;2022-12-10T00:01:26;11.67;;;6.13;;
8098;SDS011;4092;47.876;9.372;2022-12-10T00:03:54;12.97;;;5.80;;
8098;SDS011;4092;47.876;9.372;2022-12-10T00:06:24;9.77;;;5.93;;
8098;SDS011;4092;47.876;9.372;2022-12-10T00:08:52;11.67;;;6.70;;
8098;SDS011;4092;47.876;9.372;2022-12-10T00:11:20;14.43;;;6.67;;
8098;SDS011;4092;47.876;9.372;2022-12-10T00:13:48;19.20;;;10.20;;
8098;SDS011;4092;47.876;9.372;2022-12-10T00:16:17;14.53;;;7.73;;
8098;SDS011;4092;47.876;9.372;2022-12-10T00:18:45;13.80;;;6.57;;
8098;SDS011;4092;47.876;9.372;2022-12-10T00:21:13;12.43;;;6.40;;
8098;SDS011;4092;47.876;9.372;2022-12-10T00:23:42;12.70;;;6.20;;
8098;SDS011;4092;47.876;9.372;2022-12-10T00:26:10;13.00;;;6.20;;
8098;SDS011;4092;47.876;9.372;2022-12-10T00:28:38;15.53;;;8.90;;
8098;SDS011;4092;47.876;9.372;2022-12-10T00:31:06;13.70;;;6.13;;
8098;SDS011;4092;47.876;9.372;2022-12-10T00:33:35;17.50;;;7.60;;
8098;SDS011;4092;47.876;9.372;2022-12-10T00:36:03;14.17;;;6.47;;
8098;SDS011;4092;47.876;9.372;2022-12-10T00:38:32;17.87;;;8.60;;
8098;SDS011;4092;47.876;9.372;2022-12-10T00:41:01;19.63;;;7.10;;
8098;SDS011;4092;47.876;9.372;2022-12-10T00:43:28;12.70;;;7.43;;
8098;SDS011;4092;47.876;9.372;2022-12-10T00:45:56;20.63;;;8.60;;
8098;SDS011;4092;47.876;9.372;2022-12-10T00:48:23;18.87;;;7.20;;
8098;SDS011;4092;47.876;9.372;2022-12-10T00:50:57;13.10;;;6.80;;
8098;SDS011;4092;47.876;9.372;2022-12-10T00:53:26;15.37;;;8.60;;
8098;SDS011;4092;47.876;9.372;2022-12-10T00:55:54;17.67;;;6.63;;
8098;SDS011;4092;47.876;9.372;2022-12-10T00:58:23;14.93;;;6.93;;
8098;SDS011;4092;47.876;9.372;2022-12-10T01:00:52;13.27;;;7.27;;
8098;SDS011;4092;47.876;9.372;2022-12-10T01:03:20;16.23;;;8.90;;
8098;SDS011;4092;47.876;9.372;2022-12-10T01:05:47;17.30;;;7.77;;
8098;SDS011;4092;47.876;9.372;2022-12-10T01:08:14;20.37;;;8.40;;
8098;SDS011;4092;47.876;9.372;2022-12-10T01:10:41;16.43;;;8.40;;
8098;SDS011;4092;47.876;9.372;2022-12-10T01:13:08;14.83;;;8.27;;
8098;SDS011;4092;47.876;9.372;2022-12-10T01:15:38;19.30;;;10.20;;
8098;SDS011;4092;47.876;9.372;2022-12-10T01:18:05;19.10;;;7.83;;
8098;SDS011;4092;47.876;9.372;2022-12-10T01:20:34;16.63;;;6.67;;
8098;SDS011;4092;47.876;9.372;2022-12-10T01:23:02;10.90;;;6.17;;
8098;SDS011;4092;47.876;9.372;2022-12-10T01:25:29;15.67;;;7.57;;
8098;SDS011;4092;47.876;9.372;2022-12-10T01:27:56;14.47;;;6.83;;
8098;SDS011;4092;47.876;9.372;2022-12-10T01:30:23;20.57;;;8.90;;
8098;SDS011;4092;47.876;9.372;2022-12-10T01:32:52;16.57;;;7.23;;
8098;SDS011;4092;47.876;9.372;2022-12-10T01:35:19;17.87;;;8.13;;
8098;SDS011;4092;47.876;9.372;2022-12-10T01:37:46;14.50;;;7.00;;
8098;SDS011;4092;47.876;9.372;2022-12-10T01:40:13;13.80;;;5.90;;
8098;SDS011;4092;47.876;9.372;2022-12-10T01:42:40;13.87;;;6.40;;
8098;SDS011;4092;47.876;9.372;2022-12-10T01:45:09;19.97;;;7.00;;
8098;SDS011;4092;47.876;9.372;2022-12-10T01:47:38;14.90;;;7.23;;
8098;SDS011;4092;47.876;9.372;2022-12-10T01:50:07;12.17;;;6.77;;
8098;SDS011;4092;47.876;9.372;2022-12-10T01:52:35;11.03;;;5.40;;
8098;SDS011;4092;47.876;9.372;2022-12-10T01:55:06;13.97;;;8.03;;
8098;SDS011;4092;47.876;9.372;2022-12-10T01:57:54;16.13;;;7.70;;
8098;SDS011;4092;47.876;9.372;2022-12-10T02:00:21;17.53;;;8.13;;
8098;SDS011;4092;47.876;9.372;2022-12-10T02:02:50;17.93;;;7.43;;
8098;SDS011;4092;47.876;9.372;2022-12-10T02:05:28;17.70;;;9.10;;
8098;SDS011;4092;47.876;9.372;2022-12-10T02:08:02;19.77;;;8.20;;
8098;SDS011;4092;47.876;9.372;2022-12-10T02:10:56;9.67;;;5.67;;
8098;SDS011;4092;47.876;9.372;2022-12-10T02:13:31;16.07;;;7.60;;
8098;SDS011;4092;47.876;9.372;2022-12-10T02:16:04;16.87;;;6.10;;
8098;SDS011;4092;47.876;9.372;2022-12-10T02:18:39;12.43;;;5.20;;
8098;SDS011;4092;47.876;9.372;2022-12-10T02:21:13;13.33;;;7.40;;
8098;SDS011;4092;47.876;9.372;2022-12-10T02:23:44;15.07;;;8.50;;
8098;SDS011;4092;47.876;9.372;2022-12-10T02:26:16;13.87;;;6.50;;
8098;SDS011;4092;47.876;9.372;2022-12-10T02:28:51;14.20;;;5.50;;
8098;SDS011;4092;47.876;9.372;2022-12-10T02:31:23;17.67;;;7.80;;
8098;SDS011;4092;47.876;9.372;2022-12-10T02:33:56;17.10;;;7.67;;
8098;SDS011;4092;47.876;9.372;2022-12-10T02:38:53;20.30;;;7.50;;
8098;SDS011;4092;47.876;9.372;2022-12-10T02:41:24;17.27;;;7.30;;
8098;SDS011;4092;47.876;9.372;2022-12-10T02:43:54;14.87;;;6.37;;
8098;SDS011;4092;47.876;9.372;2022-12-10T02:46:25;17.73;;;6.53;;
8098;SDS011;4092;47.876;9.372;2022-12-10T02:48:55;14.63;;;6.93;;
8098;SDS011;4092;47.876;9.372;2022-12-10T02:51:24;14.67;;;6.40;;
8098;SDS011;4092;47.876;9.372;2022-12-10T02:53:58;15.07;;;7.27;;
8098;SDS011;4092;47.876;9.372;2022-12-10T02:56:26;13.93;;;7.57;;
8098;SDS011;4092;47.876;9.372;2022-12-10T02:59:01;13.33;;;7.73;;
8098;SDS011;4092;47.876;9.372;2022-12-10T03:01:41;15.77;;;6.27;;
8098;SDS011;4092;47.876;9.372;2022-12-10T03:04:16;15.27;;;7.33;;
8098;SDS011;4092;47.876;9.372;2022-12-10T03:06:50;12.73;;;7.03;;
8098;SDS011;4092;47.876;9.372;2022-12-10T03:09:23;17.80;;;8.70;;
8098;SDS011;4092;47.876;9.372;2022-12-10T03:11:55;16.20;;;8.00;;
8098;SDS011;4092;47.876;9.372;2022-12-10T03:14:26;20.23;;;7.60;;
8098;SDS011;4092;47.876;9.372;2022-12-10T03:16:58;20.77;;;8.37;;
8098;SDS011;4092;47.876;9.372;2022-12-10T03:19:27;16.90;;;6.70;;
8098;SDS011;4092;47.876;9.372;2022-12-10T03:21:58;19.93;;;6.80;;
8098;SDS011;4092;47.876;9.372;2022-12-10T03:24:28;27.60;;;10.30;;
8098;SDS011;4092;47.876;9.372;2022-12-10T03:26:56;40.40;;;8.07;;
8098;SDS011;4092;47.876;9.372;2022-12-10T03:29:25;13.93;;;6.97;;
8098;SDS011;4092;47.876;9.372;2022-12-10T03:31:56;23.33;;;8.77;;
8098;SDS011;4092;47.876;9.372;2022-12-10T03:34:27;29.83;;;9.83;;
8098;SDS011;4092;47.876;9.372;2022-12-10T03:36:54;15.20;;;7.37;;
8098;SDS011;4092;47.876;9.372;2022-12-10T03:39:22;37.23;;;8.50;;
8098;SDS011;4092;47.876;9.372;2022-12-10T03:41:49;38.40;;;8.93;;
8098;SDS011;4092;47.876;9.372;2022-12-10T03:44:26;18.53;;;9.20;;
8098;SDS011;4092;47.876;9.372;2022-12-10T03:46:54;18.97;;;8.30;;
8098;SDS011;4092;47.876;9.372;2022-12-10T03:49:22;16.63;;;7.33;;
8098;SDS011;4092;47.876;9.372;2022-12-10T03:51:49;23.43;;;8.37;;
8098;SDS011;4092;47.876;9.372;2022-12-10T03:54:17;32.27;;;8.50;;
8098;SDS011;4092;47.876;9.372;2022-12-10T03:56:44;14.97;;;6.27;;
8098;SDS011;4092;47.876;9.372;2022-12-10T03:59:11;21.30;;;10.13;;
8098;SDS011;4092;47.876;9.372;2022-12-10T04:01:38;9.83;;;6.83;;
8098;SDS011;4092;47.876;9.372;2022-12-10T04:04:05;17.57;;;7.60;;
8098;SDS011;4092;47.876;9.372;2022-12-10T04:06:34;19.37;;;8.77;;
8098;SDS011;4092;47.876;9.372;2022-12-10T04:09:03;13.40;;;6.63;;
8098;SDS011;4092;47.876;9.372;2022-12-10T04:11:30;22.27;;;8.77;;
8098;SDS011;4092;47.876;9.372;2022-12-10T04:13:57;17.60;;;5.87;;
8098;SDS011;4092;47.876;9.372;2022-12-10T04:16:41;13.50;;;5.90;;
8098;SDS011;4092;47.876;9.372;2022-12-10T04:19:09;18.17;;;6.50;;
8098;SDS011;4092;47.876;9.372;2022-12-10T04:21:39;22.10;;;8.47;;
8098;SDS011;4092;47.876;9.372;2022-12-10T04:24:26;19.70;;;7.80;;
8098;SDS011;4092;47.876;9.372;2022-12-10T04:27:13;20.90;;;8.37;;
8098;SDS011;4092;47.876;9.372;2022-12-10T04:29:43;28.00;;;7.10;;
8098;SDS011;4092;47.876;9.372;2022-12-10T04:32:10;17.73;;;7.43;;
8098;SDS011;4092;47.876;9.372;2022-12-10T04:34:37;27.23;;;8.63;;
8098;SDS011;4092;47.876;9.372;2022-12-10T04:37:06;18.93;;;6.93;;
8098;SDS011;4092;47.876;9.372;2022-12-10T04:39:33;25.83;;;8.53;;
8098;SDS011;4092;47.876;9.372;2022-12-10T04:42:00;18.67;;;7.30;;
8098;SDS011;4092;47.876;9.372;2022-12-10T04:44:27;20.60;;;7.70;;
8098;SDS011;4092;47.876;9.372;2022-12-10T04:46:54;14.00;;;7.30;;
8098;SDS011;4092;47.876;9.372;2022-12-10T04:49:22;18.40;;;6.80;;
8098;SDS011;4092;47.876;9.372;2022-12-10T04:51:49;15.43;;;7.63;;
8098;SDS011;4092;47.876;9.372;2022-12-10T04:54:19;16.23;;;6.53;;
8098;SDS011;4092;47.876;9.372;2022-12-10T04:56:46;21.83;;;8.83;;
8098;SDS011;4092;47.876;9.372;2022-12-10T04:59:14;16.77;;;8.40;;
8098;SDS011;4092;47.876;9.372;2022-12-10T05:01:41;22.67;;;8.07;;
8098;SDS011;4092;47.876;9.372;2022-12-10T05:04:09;13.53;;;6.27;;
8098;SDS011;4092;47.876;9.372;2022-12-10T05:06:37;22.13;;;8.20;;
8098;SDS011;4092;47.876;9.372;2022-12-10T05:09:05;10.53;;;5.00;;
8098;SDS011;4092;47.876;9.372;2022-12-10T05:11:33;13.70;;;7.43;;
8098;SDS011;4092;47.876;9.372;2022-12-10T05:14:01;15.50;;;7.70;;
8098;SDS011;4092;47.876;9.372;2022-12-10T05:16:29;16.20;;;7.83;;
8098;SDS011;4092;47.876;9.372;2022-12-10T05:18:57;19.33;;;6.87;;
8098;SDS011;4092;47.876;9.372;2022-12-10T05:21:25;13.07;;;6.10;;
8098;SDS011;4092;47.876;9.372;2022-12-10T05:24:14;22.00;;;8.37;;
8098;SDS011;4092;47.876;9.372;2022-12-10T05:26:42;16.10;;;6.90;;
8098;SDS011;4092;47.876;9.372;2022-12-10T05:29:09;13.83;;;7.77;;
8098;SDS011;4092;47.876;9.372;2022-12-10T05:31:38;14.80;;;7.67;;
8098;SDS011;4092;47.876;9.372;2022-12-10T05:34:05;15.37;;;5.80;;
8098;SDS011;4092;47.876;9.372;2022-12-10T05:36:33;13.90;;;8.07;;
8098;SDS011;4092;47.876;9.372;2022-12-10T05:39:00;17.03;;;6.47;;
8098;SDS011;4092;47.876;9.372;2022-12-10T05:41:27;15.93;;;7.30;;
8098;SDS011;4092;47.876;9.372;2022-12-10T05:43:57;25.90;;;7.13;;
8098;SDS011;4092;47.876;9.372;2022-12-10T05:46:25;17.70;;;5.73;;
8098;SDS011;4092;47.876;9.372;2022-12-10T05:48:54;18.43;;;5.27;;
8098;SDS011;4092;47.876;9.372;2022-12-10T05:51:22;9.23;;;4.20;;
8098;SDS011;4092;47.876;9.372;2022-12-10T05:53:50;15.20;;;6.63;;
8098;SDS011;4092;47.876;9.372;2022-12-10T05:56:19;13.43;;;5.03;;
8098;SDS011;4092;47.876;9.372;2022-12-10T05:58:48;13.20;;;5.47;;
8098;SDS011;4092;47.876;9.372;2022-12-10T06:01:18;13.87;;;5.53;;
8098;SDS011;4092;47.876;9.372;2022-12-10T06:03:46;12.00;;;5.90;;
8098;SDS011;4092;47.876;9.372;2022-12-10T06:06:19;12.13;;;4.60;;
8098;SDS011;4092;47.876;9.372;2022-12-10T06:08:47;9.83;;;6.33;;
8098;SDS011;4092;47.876;9.372;2022-12-10T06:11:14;12.20;;;5.57;;
8098;SDS011;4092;47.876;9.372;2022-12-10T06:13:41;12.10;;;5.20;;
8098;SDS011;4092;47.876;9.372;2022-12-10T06:16:08;16.00;;;5.40;;
8098;SDS011;4092;47.876;9.372;2022-12-10T06:18:38;18.67;;;6.67;;
8098;SDS011;4092;47.876;9.372;2022-12-10T06:21:06;10.90;;;6.03;;
8098;SDS011;4092;47.876;9.372;2022-12-10T06:23:34;14.93;;;6.60;;
8098;SDS011;4092;47.876;9.372;2022-12-10T06:26:03;11.00;;;5.20;;
8098;SDS011;4092;47.876;9.372;2022-12-10T06:28:30;15.13;;;5.97;;
8098;SDS011;4092;47.876;9.372;2022-12-10T06:30:57;10.47;;;6.07;;
8098;SDS011;4092;47.876;9.372;2022-12-10T06:33:24;14.77;;;5.80;;
8098;SDS011;4092;47.876;9.372;2022-12-10T06:35:53;18.80;;;6.80;;
8098;SDS011;4092;47.876;9.372;2022-12-10T06:38:20;14.67;;;7.30;;
8098;SDS011;4092;47.876;9.372;2022-12-10T06:40:47;11.30;;;6.17;;
8098;SDS011;4092;47.876;9.372;2022-12-10T06:43:15;13.40;;;7.27;;
8098;SDS011;4092;47.876;9.372;2022-12-10T06:45:42;14.40;;;7.57;;
8098;SDS011;4092;47.876;9.372;2022-12-10T06:48:09;16.17;;;8.57;;
8098;SDS011;4092;47.876;9.372;2022-12-10T06:50:36;22.00;;;8.60;;
8098;SDS011;4092;47.876;9.372;2022-12-10T06:53:05;17.67;;;6.77;;
8098;SDS011;4092;47.876;9.372;2022-12-10T06:55:32;13.93;;;6.73;;
8098;SDS011;4092;47.876;9.372;2022-12-10T06:57:59;23.47;;;7.33;;
8098;SDS011;4092;47.876;9.372;2022-12-10T07:00:26;19.13;;;7.73;;
8098;SDS011;4092;47.876;9.372;2022-12-10T07:02:53;17.37;;;7.97;;
8098;SDS011;4092;47.876;9.372;2022-12-10T07:05:20;12.47;;;5.30;;
8098;SDS011;4092;47.876;9.372;2022-12-10T07:07:46;8.03;;;6.03;;
8098;SDS011;4092;47.876;9.372;2022-12-10T07:10:15;12.03;;;6.30;;
8098;SDS011;4092;47.876;9.372;2022-12-10T07:12:42;21.43;;;8.33;;
8098;SDS011;4092;47.876;9.372;2022-12-10T07:15:09;15.13;;;5.90;;
8098;SDS011;4092;47.876;9.372;2022-12-10T07:17:36;12.57;;;6.83;;
8098;SDS011;4092;47.876;9.372;2022-12-10T07:20:03;23.70;;;8.47;;
8098;SDS011;4092;47.876;9.372;2022-12-10T07:22:32;11.93;;;7.07;;
8098;SDS011;4092;47.876;9.372;2022-12-10T07:24:59;16.83;;;7.07;;
8098;SDS011;4092;47.876;9.372;2022-12-10T07:27:29;16.13;;;7.73;;
8098;SDS011;4092;47.876;9.372;2022-12-10T07:29:57;12.17;;;5.70;;
8098;SDS011;4092;47.876;9.372;2022-12-10T07:32:24;23.67;;;8.60;;
8098;SDS011;4092;47.876;9.372;2022-12-10T07:34:52;17.50;;;7.80;;
8098;SDS011;4092;47.876;9.372;2022-12-10T07:37:19;20.03;;;7.67;;
8098;SDS011;4092;47.876;9.372;2022-12-10T07:39:46;14.07;;;6.37;;
8098;SDS011;4092;47.876;9.372;2022-12-10T07:42:13;20.13;;;8.47;;
8098;SDS011;4092;47.876;9.372;2022-12-10T07:44:42;17.30;;;8.53;;
8098;SDS011;4092;47.876;9.372;2022-12-10T07:47:09;16.10;;;8.53;;
8098;SDS011;4092;47.876;9.372;2022-12-10T07:49:36;17.40;;;7.40;;
8098;SDS011;4092;47.876;9.372;2022-12-10T07:52:03;14.50;;;7.27;;
8098;SDS011;4092;47.876;9.372;2022-12-10T07:54:30;15.30;;;7.60;;
8098;SDS011;4092;47.876;9.372;2022-12-10T07:56:57;22.73;;;7.83;;
8098;SDS011;4092;47.876;9.372;2022-12-10T07:59:24;23.60;;;10.30;;
8098;SDS011;4092;47.876;9.372;2022-12-10T08:01:52;23.47;;;10.47;;
8098;SDS011;4092;47.876;9.372;2022-12-10T08:04:19;17.43;;;8.70;;
8098;SDS011;4092;47.876;9.372;2022-12-10T08:06:46;20.33;;;10.00;;
8098;SDS011;4092;47.876;9.372;2022-12-10T08:09:13;27.47;;;10.73;;
8098;SDS011;4092;47.876;9.372;2022-12-10T08:11:40;30.13;;;9.90;;
8098;SDS011;4092;47.876;9.372;2022-12-10T08:14:10;23.77;;;7.30;;
8098;SDS011;4092;47.876;9.372;2022-12-10T08:16:37;17.10;;;9.27;;
8098;SDS011;4092;47.876;9.372;2022-12-10T08:19:06;24.57;;;11.57;;
8098;SDS011;4092;47.876;9.372;2022-12-10T08:21:33;18.70;;;7.87;;
8098;SDS011;4092;47.876;9.372;2022-12-10T08:24:00;14.30;;;7.13;;
8098;SDS011;4092;47.876;9.372;2022-12-10T08:26:28;19.27;;;9.47;;
8098;SDS011;4092;47.876;9.372;2022-12-10T08:28:56;20.53;;;7.00;;
8098;SDS011;4092;47.876;9.372;2022-12-10T08:31:24;22.07;;;8.50;;
8098;SDS011;4092;47.876;9.372;2022-12-10T08:33:53;24.23;;;8.70;;
8098;SDS011;4092;47.876;9.372;2022-12-10T08:36:21;25.87;;;8.50;;
8098;SDS011;4092;47.876;9.372;2022-12-10T08:38:49;20.27;;;8.73;;
8098;SDS011;4092;47.876;9.372;2022-12-10T08:41:17;23.93;;;10.30;;
8098;SDS011;4092;47.876;9.372;2022-12-10T08:43:45;17.13;;;8.47;;
8098;SDS011;4092;47.876;9.372;2022-12-10T08:46:12;18.13;;;8.13;;
8098;SDS011;4092;47.876;9.372;2022-12-10T08:48:40;16.40;;;7.50;;
8098;SDS011;4092;47.876;9.372;2022-12-10T08:51:08;18.80;;;8.60;;
8098;SDS011;4092;47.876;9.372;2022-12-10T08:53:38;15.83;;;7.10;;
8098;SDS011;4092;47.876;9.372;2022-12-10T08:56:06;17.40;;;8.00;;
8098;SDS011;4092;47.876;9.372;2022-12-10T08:58:33;15.67;;;6.77;;
8098;SDS011;4092;47.876;9.372;2022-12-10T09:01:00;14.47;;;5.83;;
8098;SDS011;4092;47.876;9.372;2022-12-10T09:03:33;13.17;;;7.87;;
8098;SDS011;4092;47.876;9.372;2022-12-10T09:06:01;14.10;;;6.70;;
8098;SDS011;4092;47.876;9.372;2022-12-10T09:08:29;16.10;;;5.90;;
8098;SDS011;4092;47.876;9.372;2022-12-10T09:10:57;20.77;;;8.30;;
8098;SDS011;4092;47.876;9.372;2022-12-10T09:13:25;10.83;;;7.07;;
8098;SDS011;4092;47.876;9.372;2022-12-10T09:15:52;14.20;;;6.00;;
8098;SDS011;4092;47.876;9.372;2022-12-10T09:18:19;19.23;;;8.03;;
8098;SDS011;4092;47.876;9.372;2022-12-10T09:20:46;9.63;;;5.53;;
8098;SDS011;4092;47.876;9.372;2022-12-10T09:23:13;16.20;;;7.40;;
8098;SDS011;4092;47.876;9.372;2022-12-10T09:25:40;23.60;;;8.27;;
8098;SDS011;4092;47.876;9.372;2022-12-10T09:28:08;12.97;;;6.97;;
8098;SDS011;4092;47.876;9.372;2022-12-10T09:30:35;14.90;;;6.90;;
8098;SDS011;4092;47.876;9.372;2022-12-10T09:33:02;23.80;;;8.90;;
8098;SDS011;4092;47.876;9.372;2022-12-10T09:35:29;17.67;;;8.27;;
8098;SDS011;4092;47.876;9.372;2022-12-10T09:37:57;17.07;;;7.77;;
8098;SDS011;4092;47.876;9.372;2022-12-10T09:40:24;16.87;;;8.70;;
8098;SDS011;4092;47.876;9.372;2022-12-10T09:43:02;17.83;;;9.03;;
8098;SDS011;4092;47.876;9.372;2022-12-10T09:45:40;15.60;;;8.50;;
8098;SDS011;4092;47.876;9.372;2022-12-10T09:48:16;15.90;;;7.33;;
8098;SDS011;4092;47.876;9.372;2022-12-10T09:50:53;16.20;;;7.70;;
8098;SDS011;4092;47.876;9.372;2022-12-10T09:53:26;11.20;;;6.73;;
8098;SDS011;4092;47.876;9.372;2022-12-10T09:55:54;13.57;;;6.97;;
8098;SDS011;4092;47.876;9.372;2022-12-10T09:58:22;11.00;;;7.67;;
8098;SDS011;4092;47.876;9.372;2022-12-10T10:00:54;14.17;;;6.47;;
8098;SDS011;4092;47.876;9.372;2022-12-10T10:03:24;13.77;;;6.80;;
8098;SDS011;4092;47.876;9.372;2022-12-10T10:05:52;16.17;;;7.27;;
8098;SDS011;4092;47.876;9.372;2022-12-10T10:08:23;13.93;;;6.57;;
8098;SDS011;4092;47.876;9.372;2022-12-10T10:10:55;18.63;;;7.93;;
8098;SDS011;4092;47.876;9.372;2022-12-10T10:13:26;11.63;;;6.53;;
8098;SDS011;4092;47.876;9.372;2022-12-10T10:16:07;7.10;;;4.70;;
8098;SDS011;4092;47.876;9.372;2022-12-10T10:18:50;13.20;;;6.67;;
8098;SDS011;4092;47.876;9.372;2022-12-10T10:21:23;14.13;;;6.13;;
8098;SDS011;4092;47.876;9.372;2022-12-10T10:23:52;10.17;;;5.43;;
8098;SDS011;4092;47.876;9.372;2022-12-10T10:26:20;15.60;;;6.13;;
8098;SDS011;4092;47.876;9.372;2022-12-10T10:28:47;16.40;;;6.77;;
8098;SDS011;4092;47.876;9.372;2022-12-10T10:31:20;14.10;;;5.30;;
8098;SDS011;4092;47.876;9.372;2022-12-10T10:33:49;18.53;;;6.70;;
8098;SDS011;4092;47.876;9.372;2022-12-10T10:36:22;14.50;;;6.63;;
8098;SDS011;4092;47.876;9.372;2022-12-10T10:38:50;15.83;;;7.63;;
8098;SDS011;4092;47.876;9.372;2022-12-10T10:41:18;10.03;;;5.50;;
8098;SDS011;4092;47.876;9.372;2022-12-10T10:43:45;10.90;;;4.40;;
8098;SDS011;4092;47.876;9.372;2022-12-10T10:46:13;12.73;;;5.63;;
8098;SDS011;4092;47.876;9.372;2022-12-10T10:48:44;9.00;;;5.50;;
8098;SDS011;4092;47.876;9.372;2022-12-10T10:51:17;13.83;;;5.90;;
8098;SDS011;4092;47.876;9.372;2022-12-10T10:53:48;19.03;;;6.67;;
8098;SDS011;4092;47.876;9.372;2022-12-10T10:56:18;14.90;;;4.77;;
8098;SDS011;4092;47.876;9.372;2022-12-10T10:58:50;11.43;;;6.47;;
8098;SDS011;4092;47.876;9.372;2022-12-10T11:01:23;8.33;;;4.63;;
8098;SDS011;4092;47.876;9.372;2022-12-10T11:03:55;17.80;;;6.50;;
8098;SDS011;4092;47.876;9.372;2022-12-10T11:06:25;13.37;;;5.90;;
8098;SDS011;4092;47.876;9.372;2022-12-10T11:08:54;14.43;;;6.27;;
8098;SDS011;4092;47.876;9.372;2022-12-10T11:11:25;12.13;;;5.37;;
8098;SDS011;4092;47.876;9.372;2022-12-10T11:14:12;9.47;;;5.30;;
8098;SDS011;4092;47.876;9.372;2022-12-10T11:16:40;9.33;;;5.47;;
8098;SDS011;4092;47.876;9.372;2022-12-10T11:19:16;13.40;;;5.63;;
8098;SDS011;4092;47.876;9.372;2022-12-10T11:21:46;11.33;;;5.23;;
8098;SDS011;4092;47.876;9.372;2022-12-10T11:24:15;13.60;;;6.90;;
8098;SDS011;4092;47.876;9.372;2022-12-10T11:26:50;11.30;;;5.33;;
8098;SDS011;4092;47.876;9.372;2022-12-10T11:29:28;16.73;;;5.23;;
8098;SDS011;4092;47.876;9.372;2022-12-10T11:32:16;10.43;;;6.03;;
8098;SDS011;4092;47.876;9.372;2022-12-10T11:35:00;11.83;;;6.73;;
8098;SDS011;4092;47.876;9.372;2022-12-10T11:37:36;7.50;;;5.10;;
8098;SDS011;4092;47.876;9.372;2022-12-10T11:40:13;13.27;;;6.03;;
8098;SDS011;4092;47.876;9.372;2022-12-10T11:42:52;6.73;;;4.80;;
8098;SDS011;4092;47.876;9.372;2022-12-10T11:45:30;9.07;;;5.53;;
8098;SDS011;4092;47.876;9.372;2022-12-10T11:48:09;8.40;;;4.57;;
8098;SDS011;4092;47.876;9.372;2022-12-10T11:50:47;11.17;;;5.10;;
8098;SDS011;4092;47.876;9.372;2022-12-10T11:53:28;16.97;;;5.27;;
8098;SDS011;4092;47.876;9.372;2022-12-10T11:56:08;10.20;;;6.23;;
8098;SDS011;4092;47.876;9.372;2022-12-10T11:58:46;14.70;;;3.93;;
8098;SDS011;4092;47.876;9.372;2022-12-10T12:01:25;6.57;;;3.57;;
8098;SDS011;4092;47.876;9.372;2022-12-10T12:04:13;8.10;;;3.33;;
8098;SDS011;4092;47.876;9.372;2022-12-10T12:06:55;6.73;;;2.77;;
8098;SDS011;4092;47.876;9.372;2022-12-10T12:09:35;3.70;;;3.40;;
8098;SDS011;4092;47.876;9.372;2022-12-10T12:12:14;5.50;;;3.10;;
8098;SDS011;4092;47.876;9.372;2022-12-10T12:14:51;4.80;;;3.00;;
8098;SDS011;4092;47.876;9.372;2022-12-10T12:17:23;7.03;;;3.40;;
8098;SDS011;4092;47.876;9.372;2022-12-10T12:19:54;8.33;;;3.90;;
8098;SDS011;4092;47.876;9.372;2022-12-10T12:22:27;4.40;;;3.40;;
8098;SDS011;4092;47.876;9.372;2022-12-10T12:24:57;6.27;;;3.70;;
8098;SDS011;4092;47.876;9.372;2022-12-10T12:27:30;6.87;;;3.73;;
8098;SDS011;4092;47.876;9.372;2022-12-10T12:30:04;6.90;;;4.20;;
8098;SDS011;4092;47.876;9.372;2022-12-10T12:32:37;11.07;;;5.07;;
8098;SDS011;4092;47.876;9.372;2022-12-10T12:35:12;18.60;;;5.43;;
8098;SDS011;4092;47.876;9.372;2022-12-10T12:37:45;8.27;;;3.67;;
8098;SDS011;4092;47.876;9.372;2022-12-10T12:40:20;14.03;;;5.50;;
8098;SDS011;4092;47.876;9.372;2022-12-10T12:42:54;5.13;;;3.40;;
8098;SDS011;4092;47.876;9.372;2022-12-10T12:45:30;7.03;;;3.97;;
8098;SDS011;4092;47.876;9.372;2022-12-10T12:48:02;6.37;;;4.30;;
8098;SDS011;4092;47.876;9.372;2022-12-10T12:50:42;12.30;;;3.80;;
8098;SDS011;4092;47.876;9.372;2022-12-10T12:53:15;4.63;;;3.00;;
8098;SDS011;4092;47.876;9.372;2022-12-10T12:55:45;9.03;;;4.53;;
8098;SDS011;4092;47.876;9.372;2022-12-10T12:58:20;8.90;;;3.60;;
8098;SDS011;4092;47.876;9.372;2022-12-10T13:00:57;5.80;;;3.73;;
8098;SDS011;4092;47.876;9.372;2022-12-10T13:03:33;10.60;;;4.67;;
8098;SDS011;4092;47.876;9.372;2022-12-10T13:06:16;9.40;;;3.43;;
8098;SDS011;4092;47.876;9.372;2022-12-10T13:08:49;8.80;;;4.80;;
8098;SDS011;4092;47.876;9.372;2022-12-10T13:11:24;11.80;;;5.10;;
8098;SDS011;4092;47.876;9.372;2022-12-10T13:14:02;10.60;;;4.77;;
8098;SDS011;4092;47.876;9.372;2022-12-10T13:16:47;8.73;;;4.70;;
8098;SDS011;4092;47.876;9.372;2022-12-10T13:19:25;12.60;;;4.40;;
8098;SDS011;4092;47.876;9.372;2022-12-10T13:22:04;7.30;;;3.67;;
8098;SDS011;4092;47.876;9.372;2022-12-10T13:27:36;6.70;;;3.70;;
8098;SDS011;4092;47.876;9.372;2022-12-10T13:30:08;6.03;;;3.50;;
8098;SDS011;4092;47.876;9.372;2022-12-10T13:33:03;7.47;;;3.60;;
8098;SDS011;4092;47.876;9.372;2022-12-10T13:35:51;10.20;;;4.83;;
8098;SDS011;4092;47.876;9.372;2022-12-10T13:38:24;8.20;;;3.93;;
8098;SDS011;4092;47.876;9.372;2022-12-10T13:40:58;7.37;;;3.73;;
8098;SDS011;4092;47.876;9.372;2022-12-10T13:43:51;5.37;;;3.17;;
8098;SDS011;4092;47.876;9.372;2022-12-10T13:46:50;8.73;;;4.10;;
8098;SDS011;4092;47.876;9.372;2022-12-10T13:49:19;12.10;;;3.10;;
8098;SDS011;4092;47.876;9.372;2022-12-10T13:51:51;8.23;;;4.73;;
8098;SDS011;4092;47.876;9.372;2022-12-10T13:57:35;4.97;;;3.43;;
8098;SDS011;4092;47.876;9.372;2022-12-10T14:00:14;5.00;;;2.93;;
8098;SDS011;4092;47.876;9.372;2022-12-10T14:05:55;10.67;;;3.43;;
8098;SDS011;4092;47.876;9.372;2022-12-10T14:08:33;7.73;;;3.90;;
8098;SDS011;4092;47.876;9.372;2022-12-10T14:11:03;8.47;;;4.93;;
8098;SDS011;4092;47.876;9.372;2022-12-10T14:13:39;16.30;;;6.43;;
8098;SDS011;4092;47.876;9.372;2022-12-10T14:16:09;7.93;;;5.17;;
8098;SDS011;4092;47.876;9.372;2022-12-10T14:18:38;10.40;;;5.90;;
8098;SDS011;4092;47.876;9.372;2022-12-10T14:21:08;9.30;;;4.17;;
8098;SDS011;4092;47.876;9.372;2022-12-10T14:23:43;12.80;;;5.37;;
8098;SDS011;4092;47.876;9.372;2022-12-10T14:26:13;10.27;;;5.90;;
8098;SDS011;4092;47.876;9.372;2022-12-10T14:28:44;11.60;;;3.40;;
8098;SDS011;4092;47.876;9.372;2022-12-10T14:31:13;13.83;;;6.10;;
8098;SDS011;4092;47.876;9.372;2022-12-10T14:33:43;9.83;;;4.27;;
8098;SDS011;4092;47.876;9.372;2022-12-10T14:36:14;4.80;;;3.13;;
8098;SDS011;4092;47.876;9.372;2022-12-10T14:38:45;5.90;;;3.23;;
8098;SDS011;4092;47.876;9.372;2022-12-10T14:41:14;7.03;;;3.60;;
8098;SDS011;4092;47.876;9.372;2022-12-10T14:43:46;7.13;;;4.30;;
8098;SDS011;4092;47.876;9.372;2022-12-10T14:46:14;6.80;;;4.03;;
8098;SDS011;4092;47.876;9.372;2022-12-10T14:48:46;13.13;;;6.27;;
8098;SDS011;4092;47.876;9.372;2022-12-10T14:51:15;5.80;;;3.83;;
8098;SDS011;4092;47.876;9.372;2022-12-10T14:53:43;9.57;;;4.93;;
8098;SDS011;4092;47.876;9.372;2022-12-10T14:56:13;7.93;;;4.10;;
8098;SDS011;4092;47.876;9.372;2022-12-10T14:58:47;8.23;;;4.63;;
8098;SDS011;4092;47.876;9.372;2022-12-10T15:01:21;13.80;;;6.97;;
8098;SDS011;4092;47.876;9.372;2022-12-10T15:03:53;11.37;;;5.73;;
8098;SDS011;4092;47.876;9.372;2022-12-10T15:06:21;12.37;;;6.43;;
8098;SDS011;4092;47.876;9.372;2022-12-10T15:08:48;10.13;;;4.60;;
8098;SDS011;4092;47.876;9.372;2022-12-10T15:11:19;10.30;;;4.03;;
8098;SDS011;4092;47.876;9.372;2022-12-10T15:13:49;6.80;;;4.20;;
8098;SDS011;4092;47.876;9.372;2022-12-10T15:16:19;5.50;;;4.23;;
8098;SDS011;4092;47.876;9.372;2022-12-10T15:18:55;12.17;;;4.20;;
8098;SDS011;4092;47.876;9.372;2022-12-10T15:21:32;11.73;;;4.70;;
8098;SDS011;4092;47.876;9.372;2022-12-10T15:24:12;9.30;;;4.40;;
8098;SDS011;4092;47.876;9.372;2022-12-10T15:26:42;12.33;;;4.77;;
8098;SDS011;4092;47.876;9.372;2022-12-10T15:29:31;8.57;;;4.70;;
8098;SDS011;4092;47.876;9.372;2022-12-10T15:32:01;9.37;;;4.27;;
8098;SDS011;4092;47.876;9.372;2022-12-10T15:34:34;5.30;;;4.17;;
8098;SDS011;4092;47.876;9.372;2022-12-10T15:37:06;8.07;;;4.50;;